sensor_id;sensor_type;location;lat;lon;timestamp;P1;durP1;ratioP1;P2;durP2;ratioP2
23432;SDS011;41331;45.412;10.992;2023-03-31T00:00:59;29.42;;;16.05;;
23432;SDS011;41331;45.412;10.992;2023-03-31T00:03:30;29.13;;;16.15;;
23432;SDS011;41331;45.412;10.992;2023-03-31T00:06:00;28.88;;;16.58;;
23432;SDS011;41331;45.412;10.992;2023-03-31T00:08:28;26.70;;;15.77;;
23432;SDS011;41331;45.412;10.992;2023-03-31T00:11:02;27.42;;;15.23;;
23432;SDS011;41331;45.412;10.992;2023-03-31T00:13:33;27.52;;;15.40;;
23432;SDS011;41331;45.412;10.992;2023-03-31T00:16:02;26.85;;;15.27;;
23432;SDS011;41331;45.412;10.992;2023-03-31T00:18:32;29.50;;;15.80;;
23432;SDS011;41331;45.412;10.992;2023-03-31T00:21:07;28.38;;;14.98;;
23432;SDS011;41331;45.412;10.992;2023-03-31T00:23:40;26.38;;;15.40;;
23432;SDS011;41331;45.412;10.992;2023-03-31T00:26:08;25.73;;;16.13;;
23432;SDS011;41331;45.412;10.992;2023-03-31T00:28:35;30.73;;;16.52;;
23432;SDS011;41331;45.412;10.992;2023-03-31T00:31:03;23.15;;;15.55;;
23432;SDS011;41331;45.412;10.992;2023-03-31T00:33:30;29.33;;;16.38;;
23432;SDS011;41331;45.412;10.992;2023-03-31T00:35:58;31.20;;;15.80;;
23432;SDS011;41331;45.412;10.992;2023-03-31T00:38:28;25.77;;;16.38;;
23432;SDS011;41331;45.412;10.992;2023-03-31T00:40:56;27.88;;;15.88;;
23432;SDS011;41331;45.412;10.992;2023-03-31T00:46:06;25.23;;;16.30;;
23432;SDS011;41331;45.412;10.992;2023-03-31T00:48:51;28.63;;;16.95;;
23432;SDS011;41331;45.412;10.992;2023-03-31T00:51:26;27.27;;;16.42;;
23432;SDS011;41331;45.412;10.992;2023-03-31T00:53:59;28.73;;;16.45;;
23432;SDS011;41331;45.412;10.992;2023-03-31T00:56:33;27.63;;;16.92;;
23432;SDS011;41331;45.412;10.992;2023-03-31T00:59:04;26.00;;;16.75;;
23432;SDS011;41331;45.412;10.992;2023-03-31T01:01:34;23.57;;;16.70;;
23432;SDS011;41331;45.412;10.992;2023-03-31T01:04:05;29.65;;;17.08;;
23432;SDS011;41331;45.412;10.992;2023-03-31T01:06:42;28.05;;;17.10;;
23432;SDS011;41331;45.412;10.992;2023-03-31T01:09:18;29.35;;;17.08;;
23432;SDS011;41331;45.412;10.992;2023-03-31T01:11:46;28.92;;;17.35;;
23432;SDS011;41331;45.412;10.992;2023-03-31T01:14:15;31.73;;;17.83;;
23432;SDS011;41331;45.412;10.992;2023-03-31T01:16:43;29.75;;;17.75;;
23432;SDS011;41331;45.412;10.992;2023-03-31T01:19:19;29.42;;;16.92;;
23432;SDS011;41331;45.412;10.992;2023-03-31T01:22:13;28.80;;;17.58;;
23432;SDS011;41331;45.412;10.992;2023-03-31T01:27:54;26.48;;;17.33;;
23432;SDS011;41331;45.412;10.992;2023-03-31T01:42:48;29.60;;;17.45;;
23432;SDS011;41331;45.412;10.992;2023-03-31T01:48:19;27.67;;;18.13;;
23432;SDS011;41331;45.412;10.992;2023-03-31T01:50:57;28.35;;;18.88;;
23432;SDS011;41331;45.412;10.992;2023-03-31T01:53:47;31.42;;;19.08;;
23432;SDS011;41331;45.412;10.992;2023-03-31T01:56:24;29.63;;;18.95;;
23432;SDS011;41331;45.412;10.992;2023-03-31T02:06:52;31.70;;;18.48;;
23432;SDS011;41331;45.412;10.992;2023-03-31T02:09:26;34.47;;;19.30;;
23432;SDS011;41331;45.412;10.992;2023-03-31T02:11:59;32.58;;;18.73;;
23432;SDS011;41331;45.412;10.992;2023-03-31T02:14:35;32.47;;;19.77;;
23432;SDS011;41331;45.412;10.992;2023-03-31T02:17:10;27.83;;;18.52;;
23432;SDS011;41331;45.412;10.992;2023-03-31T02:19:44;29.52;;;18.17;;
23432;SDS011;41331;45.412;10.992;2023-03-31T02:22:17;28.73;;;19.25;;
23432;SDS011;41331;45.412;10.992;2023-03-31T02:24:48;29.30;;;18.23;;
23432;SDS011;41331;45.412;10.992;2023-03-31T02:27:22;34.92;;;19.52;;
23432;SDS011;41331;45.412;10.992;2023-03-31T02:29:52;33.25;;;19.48;;
23432;SDS011;41331;45.412;10.992;2023-03-31T02:32:28;33.20;;;20.02;;
23432;SDS011;41331;45.412;10.992;2023-03-31T02:34:59;34.63;;;19.60;;
23432;SDS011;41331;45.412;10.992;2023-03-31T02:37:27;35.90;;;20.73;;
23432;SDS011;41331;45.412;10.992;2023-03-31T02:39:57;31.98;;;19.35;;
23432;SDS011;41331;45.412;10.992;2023-03-31T02:42:27;32.55;;;19.20;;
23432;SDS011;41331;45.412;10.992;2023-03-31T02:45:00;32.67;;;20.30;;
23432;SDS011;41331;45.412;10.992;2023-03-31T02:47:32;30.67;;;18.58;;
23432;SDS011;41331;45.412;10.992;2023-03-31T02:50:00;30.38;;;18.77;;
23432;SDS011;41331;45.412;10.992;2023-03-31T02:52:44;37.63;;;19.92;;
23432;SDS011;41331;45.412;10.992;2023-03-31T02:55:19;29.92;;;18.75;;
23432;SDS011;41331;45.412;10.992;2023-03-31T03:03:27;32.03;;;19.00;;
23432;SDS011;41331;45.412;10.992;2023-03-31T03:11:56;28.08;;;17.65;;
23432;SDS011;41331;45.412;10.992;2023-03-31T03:17:11;34.15;;;18.77;;
23432;SDS011;41331;45.412;10.992;2023-03-31T03:19:54;29.05;;;18.67;;
23432;SDS011;41331;45.412;10.992;2023-03-31T03:22:24;30.17;;;18.38;;
23432;SDS011;41331;45.412;10.992;2023-03-31T03:24:52;32.85;;;19.00;;
23432;SDS011;41331;45.412;10.992;2023-03-31T03:27:19;28.05;;;18.55;;
23432;SDS011;41331;45.412;10.992;2023-03-31T03:29:50;32.80;;;19.05;;
23432;SDS011;41331;45.412;10.992;2023-03-31T03:32:17;29.70;;;18.80;;
23432;SDS011;41331;45.412;10.992;2023-03-31T03:34:45;30.10;;;17.75;;
23432;SDS011;41331;45.412;10.992;2023-03-31T03:37:12;32.28;;;18.20;;
23432;SDS011;41331;45.412;10.992;2023-03-31T03:39:39;26.67;;;17.85;;
23432;SDS011;41331;45.412;10.992;2023-03-31T03:42:07;29.75;;;17.10;;
23432;SDS011;41331;45.412;10.992;2023-03-31T03:44:34;29.70;;;18.17;;
23432;SDS011;41331;45.412;10.992;2023-03-31T03:47:02;29.58;;;16.55;;
23432;SDS011;41331;45.412;10.992;2023-03-31T03:49:29;28.35;;;18.35;;
23432;SDS011;41331;45.412;10.992;2023-03-31T03:51:56;33.70;;;17.85;;
23432;SDS011;41331;45.412;10.992;2023-03-31T03:54:24;30.02;;;18.33;;
23432;SDS011;41331;45.412;10.992;2023-03-31T03:56:51;29.42;;;17.13;;
23432;SDS011;41331;45.412;10.992;2023-03-31T03:59:18;29.00;;;18.00;;
23432;SDS011;41331;45.412;10.992;2023-03-31T04:01:46;29.88;;;17.33;;
23432;SDS011;41331;45.412;10.992;2023-03-31T04:04:13;31.60;;;17.65;;
23432;SDS011;41331;45.412;10.992;2023-03-31T04:06:41;24.90;;;16.88;;
23432;SDS011;41331;45.412;10.992;2023-03-31T04:09:09;32.80;;;18.17;;
23432;SDS011;41331;45.412;10.992;2023-03-31T04:11:37;29.42;;;19.10;;
23432;SDS011;41331;45.412;10.992;2023-03-31T04:14:04;30.67;;;17.98;;
23432;SDS011;41331;45.412;10.992;2023-03-31T04:16:32;26.17;;;18.00;;
23432;SDS011;41331;45.412;10.992;2023-03-31T04:19:00;32.25;;;18.65;;
23432;SDS011;41331;45.412;10.992;2023-03-31T04:21:30;28.92;;;18.25;;
23432;SDS011;41331;45.412;10.992;2023-03-31T04:24:01;35.22;;;18.40;;
23432;SDS011;41331;45.412;10.992;2023-03-31T04:26:31;29.77;;;18.55;;
23432;SDS011;41331;45.412;10.992;2023-03-31T04:29:10;29.63;;;17.23;;
23432;SDS011;41331;45.412;10.992;2023-03-31T04:31:39;29.15;;;17.10;;
23432;SDS011;41331;45.412;10.992;2023-03-31T04:34:11;29.70;;;17.77;;
23432;SDS011;41331;45.412;10.992;2023-03-31T04:36:44;29.40;;;18.48;;
23432;SDS011;41331;45.412;10.992;2023-03-31T04:39:18;32.58;;;17.85;;
23432;SDS011;41331;45.412;10.992;2023-03-31T04:41:53;30.75;;;17.67;;
23432;SDS011;41331;45.412;10.992;2023-03-31T04:44:20;30.23;;;17.75;;
23432;SDS011;41331;45.412;10.992;2023-03-31T04:46:47;27.15;;;17.20;;
23432;SDS011;41331;45.412;10.992;2023-03-31T04:49:15;31.88;;;17.80;;
23432;SDS011;41331;45.412;10.992;2023-03-31T04:51:42;36.78;;;17.60;;
23432;SDS011;41331;45.412;10.992;2023-03-31T04:54:10;27.55;;;18.48;;
23432;SDS011;41331;45.412;10.992;2023-03-31T04:56:38;32.22;;;18.15;;
23432;SDS011;41331;45.412;10.992;2023-03-31T04:59:05;27.88;;;18.50;;
23432;SDS011;41331;45.412;10.992;2023-03-31T05:01:34;27.25;;;17.63;;
23432;SDS011;41331;45.412;10.992;2023-03-31T05:04:03;31.90;;;19.17;;
23432;SDS011;41331;45.412;10.992;2023-03-31T05:06:31;29.88;;;19.80;;
23432;SDS011;41331;45.412;10.992;2023-03-31T05:08:59;38.45;;;18.42;;
23432;SDS011;41331;45.412;10.992;2023-03-31T05:11:26;31.92;;;19.40;;
23432;SDS011;41331;45.412;10.992;2023-03-31T05:13:55;31.35;;;18.40;;
23432;SDS011;41331;45.412;10.992;2023-03-31T05:16:22;32.08;;;18.02;;
23432;SDS011;41331;45.412;10.992;2023-03-31T05:18:50;26.25;;;18.35;;
23432;SDS011;41331;45.412;10.992;2023-03-31T05:21:18;29.27;;;18.35;;
23432;SDS011;41331;45.412;10.992;2023-03-31T05:23:46;28.33;;;17.75;;
23432;SDS011;41331;45.412;10.992;2023-03-31T05:26:14;35.30;;;19.02;;
23432;SDS011;41331;45.412;10.992;2023-03-31T05:28:41;32.03;;;17.38;;
23432;SDS011;41331;45.412;10.992;2023-03-31T05:31:09;30.48;;;17.27;;
23432;SDS011;41331;45.412;10.992;2023-03-31T05:33:39;29.48;;;17.35;;
23432;SDS011;41331;45.412;10.992;2023-03-31T05:36:08;30.58;;;16.67;;
23432;SDS011;41331;45.412;10.992;2023-03-31T05:38:38;29.10;;;16.65;;
23432;SDS011;41331;45.412;10.992;2023-03-31T05:41:06;29.88;;;17.42;;
23432;SDS011;41331;45.412;10.992;2023-03-31T05:43:36;30.73;;;17.55;;
23432;SDS011;41331;45.412;10.992;2023-03-31T05:46:05;28.63;;;17.05;;
23432;SDS011;41331;45.412;10.992;2023-03-31T05:48:33;29.85;;;17.05;;
23432;SDS011;41331;45.412;10.992;2023-03-31T05:51:01;33.60;;;16.58;;
23432;SDS011;41331;45.412;10.992;2023-03-31T05:53:29;30.45;;;18.02;;
23432;SDS011;41331;45.412;10.992;2023-03-31T05:56:00;31.33;;;17.10;;
23432;SDS011;41331;45.412;10.992;2023-03-31T05:58:29;28.40;;;18.17;;
23432;SDS011;41331;45.412;10.992;2023-03-31T06:01:00;29.40;;;17.67;;
23432;SDS011;41331;45.412;10.992;2023-03-31T06:03:28;32.88;;;18.00;;
23432;SDS011;41331;45.412;10.992;2023-03-31T06:05:56;30.33;;;19.42;;
23432;SDS011;41331;45.412;10.992;2023-03-31T06:08:23;31.92;;;19.13;;
23432;SDS011;41331;45.412;10.992;2023-03-31T06:10:51;33.10;;;18.52;;
23432;SDS011;41331;45.412;10.992;2023-03-31T06:13:18;32.78;;;17.02;;
23432;SDS011;41331;45.412;10.992;2023-03-31T06:15:55;31.08;;;17.42;;
23432;SDS011;41331;45.412;10.992;2023-03-31T06:18:25;33.65;;;19.20;;
23432;SDS011;41331;45.412;10.992;2023-03-31T06:20:55;29.92;;;17.25;;
23432;SDS011;41331;45.412;10.992;2023-03-31T06:23:23;29.38;;;17.33;;
23432;SDS011;41331;45.412;10.992;2023-03-31T06:25:51;29.08;;;17.65;;
23432;SDS011;41331;45.412;10.992;2023-03-31T06:28:19;30.20;;;16.88;;
23432;SDS011;41331;45.412;10.992;2023-03-31T06:30:47;30.30;;;17.80;;
23432;SDS011;41331;45.412;10.992;2023-03-31T06:33:14;26.38;;;17.20;;
23432;SDS011;41331;45.412;10.992;2023-03-31T06:35:42;33.70;;;18.38;;
23432;SDS011;41331;45.412;10.992;2023-03-31T06:38:10;27.80;;;17.00;;
23432;SDS011;41331;45.412;10.992;2023-03-31T06:40:37;30.15;;;17.17;;
23432;SDS011;41331;45.412;10.992;2023-03-31T06:43:04;30.45;;;17.30;;
23432;SDS011;41331;45.412;10.992;2023-03-31T06:45:32;31.23;;;19.33;;
23432;SDS011;41331;45.412;10.992;2023-03-31T06:47:59;31.08;;;18.70;;
23432;SDS011;41331;45.412;10.992;2023-03-31T06:50:26;30.67;;;18.30;;
23432;SDS011;41331;45.412;10.992;2023-03-31T06:52:54;32.13;;;18.45;;
23432;SDS011;41331;45.412;10.992;2023-03-31T06:55:21;32.10;;;17.58;;
23432;SDS011;41331;45.412;10.992;2023-03-31T06:57:49;32.30;;;19.10;;
23432;SDS011;41331;45.412;10.992;2023-03-31T07:00:17;29.30;;;18.30;;
23432;SDS011;41331;45.412;10.992;2023-03-31T07:02:48;36.45;;;19.50;;
23432;SDS011;41331;45.412;10.992;2023-03-31T07:05:16;30.40;;;18.13;;
23432;SDS011;41331;45.412;10.992;2023-03-31T07:07:44;30.50;;;18.85;;
23432;SDS011;41331;45.412;10.992;2023-03-31T07:10:12;32.47;;;19.52;;
23432;SDS011;41331;45.412;10.992;2023-03-31T07:12:40;34.38;;;18.45;;
23432;SDS011;41331;45.412;10.992;2023-03-31T07:15:07;33.65;;;18.95;;
23432;SDS011;41331;45.412;10.992;2023-03-31T07:17:35;27.45;;;18.80;;
23432;SDS011;41331;45.412;10.992;2023-03-31T07:20:03;32.60;;;19.08;;
23432;SDS011;41331;45.412;10.992;2023-03-31T07:22:36;33.17;;;19.15;;
23432;SDS011;41331;45.412;10.992;2023-03-31T07:25:03;31.17;;;18.88;;
23432;SDS011;41331;45.412;10.992;2023-03-31T07:27:31;28.40;;;17.88;;
23432;SDS011;41331;45.412;10.992;2023-03-31T07:29:58;29.92;;;18.52;;
23432;SDS011;41331;45.412;10.992;2023-03-31T07:32:26;26.75;;;17.77;;
23432;SDS011;41331;45.412;10.992;2023-03-31T07:34:55;27.83;;;18.40;;
23432;SDS011;41331;45.412;10.992;2023-03-31T07:37:22;31.25;;;18.67;;
23432;SDS011;41331;45.412;10.992;2023-03-31T07:39:50;32.40;;;18.08;;
23432;SDS011;41331;45.412;10.992;2023-03-31T07:42:17;33.20;;;18.90;;
23432;SDS011;41331;45.412;10.992;2023-03-31T07:44:45;34.13;;;20.00;;
23432;SDS011;41331;45.412;10.992;2023-03-31T07:47:12;26.00;;;17.65;;
23432;SDS011;41331;45.412;10.992;2023-03-31T07:49:40;28.48;;;17.75;;
23432;SDS011;41331;45.412;10.992;2023-03-31T07:52:07;30.50;;;17.60;;
23432;SDS011;41331;45.412;10.992;2023-03-31T07:54:34;29.83;;;18.13;;
23432;SDS011;41331;45.412;10.992;2023-03-31T07:57:02;31.55;;;18.92;;
23432;SDS011;41331;45.412;10.992;2023-03-31T07:59:32;33.25;;;18.42;;
23432;SDS011;41331;45.412;10.992;2023-03-31T08:02:00;26.58;;;17.35;;
23432;SDS011;41331;45.412;10.992;2023-03-31T08:04:27;29.75;;;18.67;;
23432;SDS011;41331;45.412;10.992;2023-03-31T08:06:55;28.85;;;18.45;;
23432;SDS011;41331;45.412;10.992;2023-03-31T08:09:22;37.88;;;18.83;;
23432;SDS011;41331;45.412;10.992;2023-03-31T08:11:49;27.95;;;17.73;;
23432;SDS011;41331;45.412;10.992;2023-03-31T08:14:17;31.17;;;18.35;;
23432;SDS011;41331;45.412;10.992;2023-03-31T08:17:00;32.60;;;18.70;;
23432;SDS011;41331;45.412;10.992;2023-03-31T08:19:27;31.88;;;19.23;;
23432;SDS011;41331;45.412;10.992;2023-03-31T08:21:55;35.50;;;20.30;;
23432;SDS011;41331;45.412;10.992;2023-03-31T08:24:22;31.63;;;19.95;;
23432;SDS011;41331;45.412;10.992;2023-03-31T08:26:50;33.05;;;19.08;;
23432;SDS011;41331;45.412;10.992;2023-03-31T08:29:17;32.55;;;20.25;;
23432;SDS011;41331;45.412;10.992;2023-03-31T08:31:44;36.65;;;19.83;;
23432;SDS011;41331;45.412;10.992;2023-03-31T08:34:12;32.75;;;19.73;;
23432;SDS011;41331;45.412;10.992;2023-03-31T08:36:39;30.90;;;19.98;;
23432;SDS011;41331;45.412;10.992;2023-03-31T08:39:07;34.38;;;21.27;;
23432;SDS011;41331;45.412;10.992;2023-03-31T08:44:30;31.52;;;19.05;;
23432;SDS011;41331;45.412;10.992;2023-03-31T08:47:03;34.60;;;20.92;;
23432;SDS011;41331;45.412;10.992;2023-03-31T08:49:39;35.55;;;19.83;;
23432;SDS011;41331;45.412;10.992;2023-03-31T08:52:13;34.70;;;20.05;;
23432;SDS011;41331;45.412;10.992;2023-03-31T08:54:45;34.25;;;21.08;;
23432;SDS011;41331;45.412;10.992;2023-03-31T08:59:46;34.45;;;19.55;;
23432;SDS011;41331;45.412;10.992;2023-03-31T09:07:40;32.10;;;17.95;;
23432;SDS011;41331;45.412;10.992;2023-03-31T09:17:51;31.77;;;19.52;;
23432;SDS011;41331;45.412;10.992;2023-03-31T09:20:30;32.17;;;19.55;;
23432;SDS011;41331;45.412;10.992;2023-03-31T09:23:07;38.40;;;21.45;;
23432;SDS011;41331;45.412;10.992;2023-03-31T09:25:58;36.80;;;21.35;;
23432;SDS011;41331;45.412;10.992;2023-03-31T09:28:38;39.92;;;20.77;;
23432;SDS011;41331;45.412;10.992;2023-03-31T09:31:16;37.70;;;20.83;;
23432;SDS011;41331;45.412;10.992;2023-03-31T09:33:46;34.40;;;20.83;;
23432;SDS011;41331;45.412;10.992;2023-03-31T09:36:18;33.13;;;22.35;;
23432;SDS011;41331;45.412;10.992;2023-03-31T09:38:49;36.03;;;22.02;;
23432;SDS011;41331;45.412;10.992;2023-03-31T09:41:17;37.45;;;22.08;;
23432;SDS011;41331;45.412;10.992;2023-03-31T09:43:46;35.97;;;20.33;;
23432;SDS011;41331;45.412;10.992;2023-03-31T09:46:17;32.88;;;21.35;;
23432;SDS011;41331;45.412;10.992;2023-03-31T09:48:54;37.63;;;21.40;;
23432;SDS011;41331;45.412;10.992;2023-03-31T09:51:29;36.05;;;21.83;;
23432;SDS011;41331;45.412;10.992;2023-03-31T09:54:01;39.63;;;21.92;;
23432;SDS011;41331;45.412;10.992;2023-03-31T09:59:13;40.10;;;23.67;;
23432;SDS011;41331;45.412;10.992;2023-03-31T10:01:44;38.92;;;22.65;;
23432;SDS011;41331;45.412;10.992;2023-03-31T10:04:21;38.63;;;23.55;;
23432;SDS011;41331;45.412;10.992;2023-03-31T10:06:50;36.90;;;21.27;;
23432;SDS011;41331;45.412;10.992;2023-03-31T10:09:20;38.13;;;23.27;;
23432;SDS011;41331;45.412;10.992;2023-03-31T10:11:57;37.67;;;23.20;;
23432;SDS011;41331;45.412;10.992;2023-03-31T10:14:47;39.10;;;22.60;;
23432;SDS011;41331;45.412;10.992;2023-03-31T10:17:19;37.83;;;23.38;;
23432;SDS011;41331;45.412;10.992;2023-03-31T10:19:50;42.28;;;24.75;;
23432;SDS011;41331;45.412;10.992;2023-03-31T10:24:49;38.60;;;24.67;;
23432;SDS011;41331;45.412;10.992;2023-03-31T10:27:22;41.47;;;24.80;;
23432;SDS011;41331;45.412;10.992;2023-03-31T10:29:55;39.63;;;24.98;;
23432;SDS011;41331;45.412;10.992;2023-03-31T10:34:57;39.13;;;23.40;;
23432;SDS011;41331;45.412;10.992;2023-03-31T10:37:29;37.40;;;24.02;;
23432;SDS011;41331;45.412;10.992;2023-03-31T10:39:58;34.80;;;23.40;;
23432;SDS011;41331;45.412;10.992;2023-03-31T10:42:28;40.28;;;24.70;;
23432;SDS011;41331;45.412;10.992;2023-03-31T10:48:03;39.97;;;25.23;;
23432;SDS011;41331;45.412;10.992;2023-03-31T10:50:34;36.92;;;23.75;;
23432;SDS011;41331;45.412;10.992;2023-03-31T10:53:10;38.95;;;25.23;;
23432;SDS011;41331;45.412;10.992;2023-03-31T10:58:38;39.13;;;27.83;;
23432;SDS011;41331;45.412;10.992;2023-03-31T11:04:38;40.35;;;24.77;;
23432;SDS011;41331;45.412;10.992;2023-03-31T11:07:20;36.25;;;23.27;;
23432;SDS011;41331;45.412;10.992;2023-03-31T11:16:58;36.75;;;23.17;;
23432;SDS011;41331;45.412;10.992;2023-03-31T11:24:42;33.10;;;22.17;;
23432;SDS011;41331;45.412;10.992;2023-03-31T11:27:21;33.47;;;22.50;;
23432;SDS011;41331;45.412;10.992;2023-03-31T11:30:03;35.25;;;22.60;;
23432;SDS011;41331;45.412;10.992;2023-03-31T11:32:47;38.05;;;22.80;;
23432;SDS011;41331;45.412;10.992;2023-03-31T11:41:04;35.38;;;21.17;;
23432;SDS011;41331;45.412;10.992;2023-03-31T11:43:44;33.65;;;21.33;;
23432;SDS011;41331;45.412;10.992;2023-03-31T11:46:16;31.50;;;19.75;;
23432;SDS011;41331;45.412;10.992;2023-03-31T11:48:50;32.90;;;19.90;;
23432;SDS011;41331;45.412;10.992;2023-03-31T11:54:14;32.83;;;19.55;;
23432;SDS011;41331;45.412;10.992;2023-03-31T11:56:56;32.58;;;19.25;;
23432;SDS011;41331;45.412;10.992;2023-03-31T11:59:27;27.98;;;18.98;;
23432;SDS011;41331;45.412;10.992;2023-03-31T12:04:47;28.58;;;16.58;;
23432;SDS011;41331;45.412;10.992;2023-03-31T12:07:21;26.98;;;18.33;;
23432;SDS011;41331;45.412;10.992;2023-03-31T12:09:59;27.25;;;18.98;;
23432;SDS011;41331;45.412;10.992;2023-03-31T12:12:41;30.48;;;18.33;;
23432;SDS011;41331;45.412;10.992;2023-03-31T12:15:22;25.00;;;16.52;;
23432;SDS011;41331;45.412;10.992;2023-03-31T12:17:59;27.67;;;17.90;;
23432;SDS011;41331;45.412;10.992;2023-03-31T12:20:35;29.00;;;18.40;;
23432;SDS011;41331;45.412;10.992;2023-03-31T12:23:11;28.23;;;18.25;;
23432;SDS011;41331;45.412;10.992;2023-03-31T12:25:45;27.42;;;17.60;;
23432;SDS011;41331;45.412;10.992;2023-03-31T12:28:18;28.63;;;17.17;;
23432;SDS011;41331;45.412;10.992;2023-03-31T12:30:46;26.75;;;15.15;;
23432;SDS011;41331;45.412;10.992;2023-03-31T12:33:23;24.27;;;14.90;;
23432;SDS011;41331;45.412;10.992;2023-03-31T12:42:14;17.70;;;11.23;;
23432;SDS011;41331;45.412;10.992;2023-03-31T12:47:39;19.80;;;11.05;;
23432;SDS011;41331;45.412;10.992;2023-03-31T12:56:01;25.35;;;10.93;;
23432;SDS011;41331;45.412;10.992;2023-03-31T13:03:46;20.85;;;10.95;;
23432;SDS011;41331;45.412;10.992;2023-03-31T13:08:57;19.38;;;10.82;;
23432;SDS011;41331;45.412;10.992;2023-03-31T13:14:04;17.23;;;10.40;;
23432;SDS011;41331;45.412;10.992;2023-03-31T13:16:41;21.98;;;10.32;;
23432;SDS011;41331;45.412;10.992;2023-03-31T13:19:10;19.08;;;10.48;;
23432;SDS011;41331;45.412;10.992;2023-03-31T13:21:54;21.70;;;10.70;;
23432;SDS011;41331;45.412;10.992;2023-03-31T13:24:24;22.60;;;11.13;;
23432;SDS011;41331;45.412;10.992;2023-03-31T13:26:53;16.58;;;9.63;;
23432;SDS011;41331;45.412;10.992;2023-03-31T13:29:38;21.48;;;10.02;;
23432;SDS011;41331;45.412;10.992;2023-03-31T13:34:39;21.95;;;11.35;;
23432;SDS011;41331;45.412;10.992;2023-03-31T13:51:33;20.15;;;10.23;;
23432;SDS011;41331;45.412;10.992;2023-03-31T14:00:02;18.67;;;10.05;;
23432;SDS011;41331;45.412;10.992;2023-03-31T14:05:24;18.50;;;9.15;;
23432;SDS011;41331;45.412;10.992;2023-03-31T14:07:58;18.63;;;9.40;;
23432;SDS011;41331;45.412;10.992;2023-03-31T14:10:30;17.40;;;9.80;;
23432;SDS011;41331;45.412;10.992;2023-03-31T14:13:23;17.38;;;9.80;;
23432;SDS011;41331;45.412;10.992;2023-03-31T14:15:55;23.02;;;9.57;;
23432;SDS011;41331;45.412;10.992;2023-03-31T14:18:26;20.13;;;9.57;;
23432;SDS011;41331;45.412;10.992;2023-03-31T14:23:35;11.90;;;6.07;;
23432;SDS011;41331;45.412;10.992;2023-03-31T14:26:18;13.18;;;7.18;;
23432;SDS011;41331;45.412;10.992;2023-03-31T14:34:19;15.40;;;7.30;;
23432;SDS011;41331;45.412;10.992;2023-03-31T14:37:03;16.67;;;7.57;;
23432;SDS011;41331;45.412;10.992;2023-03-31T14:39:35;15.88;;;5.80;;
23432;SDS011;41331;45.412;10.992;2023-03-31T14:42:10;16.95;;;7.97;;
23432;SDS011;41331;45.412;10.992;2023-03-31T14:44:41;19.30;;;7.18;;
23432;SDS011;41331;45.412;10.992;2023-03-31T14:47:15;20.45;;;7.75;;
23432;SDS011;41331;45.412;10.992;2023-03-31T14:50:04;17.80;;;8.20;;
23432;SDS011;41331;45.412;10.992;2023-03-31T14:52:38;16.23;;;8.38;;
23432;SDS011;41331;45.412;10.992;2023-03-31T14:55:12;17.38;;;8.25;;
23432;SDS011;41331;45.412;10.992;2023-03-31T14:57:41;27.27;;;10.25;;
23432;SDS011;41331;45.412;10.992;2023-03-31T15:00:16;27.48;;;12.40;;
23432;SDS011;41331;45.412;10.992;2023-03-31T15:02:57;19.75;;;10.88;;
23432;SDS011;41331;45.412;10.992;2023-03-31T15:05:29;22.63;;;11.07;;
23432;SDS011;41331;45.412;10.992;2023-03-31T15:08:01;21.73;;;12.05;;
23432;SDS011;41331;45.412;10.992;2023-03-31T15:10:38;19.10;;;12.25;;
23432;SDS011;41331;45.412;10.992;2023-03-31T15:13:09;19.95;;;11.32;;
23432;SDS011;41331;45.412;10.992;2023-03-31T15:15:41;23.65;;;13.13;;
23432;SDS011;41331;45.412;10.992;2023-03-31T15:18:12;25.25;;;12.45;;
23432;SDS011;41331;45.412;10.992;2023-03-31T15:20:42;21.27;;;12.73;;
23432;SDS011;41331;45.412;10.992;2023-03-31T15:23:26;20.60;;;12.07;;
23432;SDS011;41331;45.412;10.992;2023-03-31T15:28:28;25.98;;;11.68;;
23432;SDS011;41331;45.412;10.992;2023-03-31T15:30:59;19.20;;;10.82;;
23432;SDS011;41331;45.412;10.992;2023-03-31T15:33:36;18.00;;;10.23;;
23432;SDS011;41331;45.412;10.992;2023-03-31T15:36:09;25.58;;;11.00;;
23432;SDS011;41331;45.412;10.992;2023-03-31T15:38:38;22.50;;;9.80;;
23432;SDS011;41331;45.412;10.992;2023-03-31T15:41:12;18.50;;;10.88;;
23432;SDS011;41331;45.412;10.992;2023-03-31T15:43:49;22.63;;;10.43;;
23432;SDS011;41331;45.412;10.992;2023-03-31T15:49:04;21.33;;;10.55;;
23432;SDS011;41331;45.412;10.992;2023-03-31T15:51:44;18.35;;;9.95;;
23432;SDS011;41331;45.412;10.992;2023-03-31T15:56:59;23.80;;;10.10;;
23432;SDS011;41331;45.412;10.992;2023-03-31T15:59:29;21.58;;;9.80;;
23432;SDS011;41331;45.412;10.992;2023-03-31T16:02:18;21.38;;;9.48;;
23432;SDS011;41331;45.412;10.992;2023-03-31T16:04:49;23.38;;;10.18;;
23432;SDS011;41331;45.412;10.992;2023-03-31T16:07:21;23.55;;;9.30;;
23432;SDS011;41331;45.412;10.992;2023-03-31T16:10:01;22.95;;;9.30;;
23432;SDS011;41331;45.412;10.992;2023-03-31T16:12:55;18.67;;;8.97;;
23432;SDS011;41331;45.412;10.992;2023-03-31T16:15:34;18.90;;;10.00;;
23432;SDS011;41331;45.412;10.992;2023-03-31T16:18:05;21.80;;;9.60;;
23432;SDS011;41331;45.412;10.992;2023-03-31T16:20:59;24.50;;;9.52;;
23432;SDS011;41331;45.412;10.992;2023-03-31T16:23:29;21.40;;;9.60;;
23432;SDS011;41331;45.412;10.992;2023-03-31T16:25:58;18.48;;;9.63;;
23432;SDS011;41331;45.412;10.992;2023-03-31T16:28:30;22.98;;;9.95;;
23432;SDS011;41331;45.412;10.992;2023-03-31T16:31:01;18.42;;;9.40;;
23432;SDS011;41331;45.412;10.992;2023-03-31T16:33:30;23.08;;;10.73;;
23432;SDS011;41331;45.412;10.992;2023-03-31T16:36:17;18.77;;;9.35;;
23432;SDS011;41331;45.412;10.992;2023-03-31T16:38:44;21.63;;;9.57;;
23432;SDS011;41331;45.412;10.992;2023-03-31T16:41:12;24.77;;;9.82;;
23432;SDS011;41331;45.412;10.992;2023-03-31T16:43:43;25.73;;;10.27;;
23432;SDS011;41331;45.412;10.992;2023-03-31T16:46:11;17.98;;;10.27;;
23432;SDS011;41331;45.412;10.992;2023-03-31T16:48:39;26.48;;;10.77;;
23432;SDS011;41331;45.412;10.992;2023-03-31T16:51:06;20.67;;;9.82;;
23432;SDS011;41331;45.412;10.992;2023-03-31T16:53:34;20.50;;;9.85;;
23432;SDS011;41331;45.412;10.992;2023-03-31T16:56:03;25.63;;;12.18;;
23432;SDS011;41331;45.412;10.992;2023-03-31T16:58:34;19.48;;;10.30;;
23432;SDS011;41331;45.412;10.992;2023-03-31T17:01:04;23.63;;;11.40;;
23432;SDS011;41331;45.412;10.992;2023-03-31T17:03:33;21.63;;;11.95;;
23432;SDS011;41331;45.412;10.992;2023-03-31T17:06:04;21.98;;;11.90;;
23432;SDS011;41331;45.412;10.992;2023-03-31T17:08:33;19.17;;;11.32;;
23432;SDS011;41331;45.412;10.992;2023-03-31T17:11:02;24.13;;;11.98;;
23432;SDS011;41331;45.412;10.992;2023-03-31T17:13:33;26.38;;;11.70;;
23432;SDS011;41331;45.412;10.992;2023-03-31T17:16:00;21.77;;;12.20;;
23432;SDS011;41331;45.412;10.992;2023-03-31T17:18:44;21.20;;;11.18;;
23432;SDS011;41331;45.412;10.992;2023-03-31T17:21:13;23.90;;;11.68;;
23432;SDS011;41331;45.412;10.992;2023-03-31T17:23:41;24.23;;;11.82;;
23432;SDS011;41331;45.412;10.992;2023-03-31T17:26:09;20.95;;;11.38;;